Time;durP1;ratioP1;P1;durP2;ratioP2;P2;SDS_P1;SDS_P2;PMS_P1;PMS_P2;Temp;Humidity;BMP_temperature;BMP_pressure;BME280_temperature;BME280_humidity;BME280_pressure;Samples;Min_cycle;Max_cycle;Signal;HPM_P1;HPM_P2
2023/03/21 00:01:04;;;;;;;8.38;4.47;;;;;;;3.53;59.76;98862.06;7340610;19;20019;-74
2023/03/21 00:03:31;;;;;;;8.60;5.20;;;;;;;3.52;60.13;98860.34;7341500;19;20113;-74
2023/03/21 00:05:56;;;;;;;8.93;4.55;;;;;;;3.51;60.18;98858.66;7339796;19;20041;-73
2023/03/21 00:08:23;;;;;;;9.07;4.32;;;;;;;3.53;59.94;98864.69;7340489;19;20006;-74
2023/03/21 00:10:58;;;;;;;6.15;3.97;;;;;;;3.59;60.08;98851.19;7339669;19;20010;-72
2023/03/21 00:13:22;;;;;;;7.05;4.07;;;;;;;3.58;59.84;98852.13;7340033;19;20009;-72
2023/03/21 00:15:50;;;;;;;8.50;4.20;;;;;;;3.58;59.95;98846.84;7338998;19;20007;-74
2023/03/21 00:18:16;;;;;;;11.65;4.70;;;;;;;3.62;59.97;98848.34;7338945;19;20354;-74
2023/03/21 00:20:40;;;;;;;6.43;3.90;;;;;;;3.59;60.16;98841.50;7345414;19;20018;-72
2023/03/21 00:23:05;;;;;;;11.88;4.03;;;;;;;3.63;59.98;98848.28;7341187;19;20487;-71
2023/03/21 00:25:31;;;;;;;6.78;4.35;;;;;;;3.65;59.66;98845.56;7343105;19;20010;-71
2023/03/21 00:27:56;;;;;;;6.43;4.25;;;;;;;3.63;59.43;98842.16;7344078;19;20017;-71
2023/03/21 00:30:21;;;;;;;11.38;4.32;;;;;;;3.62;59.55;98851.00;7340065;19;20022;-74
2023/03/21 00:32:47;;;;;;;7.35;4.40;;;;;;;3.62;59.78;98837.81;7338159;19;20465;-70
2023/03/21 00:35:13;;;;;;;10.27;4.47;;;;;;;3.57;59.78;98835.47;7339943;19;20333;-73
2023/03/21 00:37:37;;;;;;;7.03;3.53;;;;;;;3.54;60.19;98840.88;7341454;19;20645;-69
2023/03/21 00:40:08;;;;;;;10.98;5.13;;;;;;;3.55;60.01;98825.94;7339464;19;20022;-74
2023/03/21 00:42:34;;;;;;;10.45;4.03;;;;;;;3.57;60.07;98840.72;7343267;19;20015;-72
2023/03/21 00:45:03;;;;;;;7.50;4.10;;;;;;;3.56;60.23;98840.81;7344013;19;20014;-72
2023/03/21 00:47:28;;;;;;;7.35;4.40;;;;;;;3.58;60.07;98829.25;7342766;19;20007;-73
2023/03/21 00:49:53;;;;;;;11.52;4.05;;;;;;;3.61;59.80;98831.69;7342359;19;20014;-72
2023/03/21 00:52:18;;;;;;;10.95;5.05;;;;;;;3.56;60.17;98825.00;7343291;19;20074;-70
2023/03/21 00:54:42;;;;;;;5.95;4.05;;;;;;;3.49;60.26;98818.38;7342937;19;20476;-72
2023/03/21 00:57:07;;;;;;;9.43;4.30;;;;;;;3.51;60.33;98821.75;7337894;19;20433;-72
2023/03/21 00:59:31;;;;;;;11.85;5.10;;;;;;;3.49;60.57;98811.31;7341072;19;20007;-73
2023/03/21 01:01:59;;;;;;;6.03;4.22;;;;;;;3.48;60.88;98811.41;7341319;19;20100;-71
2023/03/21 01:04:25;;;;;;;9.15;4.18;;;;;;;3.45;60.49;98803.66;7355622;19;20015;-71
2023/03/21 01:06:50;;;;;;;7.50;4.32;;;;;;;3.50;60.48;98814.81;7349743;19;20017;-69
2023/03/21 01:09:19;;;;;;;9.82;4.53;;;;;;;3.53;60.79;98810.19;7340515;19;20010;-68
2023/03/21 01:11:44;;;;;;;7.22;4.40;;;;;;;3.49;60.51;98800.78;7340045;19;20453;-68
2023/03/21 01:14:09;;;;;;;7.72;4.28;;;;;;;3.49;60.36;98805.22;7338233;19;20536;-68
2023/03/21 01:16:35;;;;;;;11.52;5.90;;;;;;;3.36;61.30;98807.66;7336713;19;20514;-67
2023/03/21 01:19:00;;;;;;;9.10;4.85;;;;;;;3.35;61.19;98802.47;7340763;19;20445;-68
2023/03/21 01:21:25;;;;;;;9.82;5.22;;;;;;;3.40;61.04;98797.78;7343449;19;20026;-68
2023/03/21 01:23:50;;;;;;;15.73;5.18;;;;;;;3.40;61.30;98795.16;7338521;19;20010;-69
2023/03/21 01:26:15;;;;;;;8.68;5.03;;;;;;;3.37;61.09;98790.94;7339275;19;20037;-67
2023/03/21 01:28:42;;;;;;;9.75;3.92;;;;;;;3.37;61.37;98787.44;7337611;19;20149;-67
2023/03/21 01:31:10;;;;;;;9.60;5.30;;;;;;;3.40;61.17;98789.88;7344782;19;20014;-66
2023/03/21 01:33:35;;;;;;;8.27;4.75;;;;;;;3.41;61.46;98789.81;7349989;19;20362;-66
2023/03/21 01:36:00;;;;;;;14.85;5.20;;;;;;;3.42;61.31;98790.66;7344790;19;20295;-66
2023/03/21 01:38:27;;;;;;;8.65;4.70;;;;;;;3.49;61.24;98797.31;7344759;19;20022;-67
2023/03/21 01:40:52;;;;;;;7.32;4.78;;;;;;;3.54;60.57;98785.53;7346152;19;20029;-68
2023/03/21 01:43:32;;;;;;;11.85;5.22;;;;;;;3.56;60.42;98790.75;7344289;19;20026;-68
2023/03/21 01:46:21;;;;;;;7.57;5.47;;;;;;;3.58;60.71;98797.63;7344716;19;20011;-68
2023/03/21 01:49:05;;;;;;;11.57;5.03;;;;;;;3.55;60.42;98795.16;7345626;19;20014;-66
2023/03/21 01:51:33;;;;;;;8.50;4.88;;;;;;;3.50;60.86;98791.91;7346815;19;20028;-64
2023/03/21 01:54:00;;;;;;;9.40;5.53;;;;;;;3.48;60.91;98796.44;7345375;19;20331;-65
2023/03/21 01:56:32;;;;;;;10.93;4.95;;;;;;;3.54;61.02;98787.34;7343601;19;20026;-66
2023/03/21 01:59:30;;;;;;;8.98;5.22;;;;;;;3.51;61.05;98782.22;7343969;19;20082;-64
2023/03/21 02:02:11;;;;;;;12.63;5.60;;;;;;;3.48;60.84;98790.34;7345111;19;20022;-65
2023/03/21 02:04:54;;;;;;;10.55;5.25;;;;;;;3.46;60.63;98779.03;7344619;19;20097;-69
2023/03/21 02:07:27;;;;;;;8.43;4.82;;;;;;;3.43;61.12;98776.56;7345958;19;20492;-73
2023/03/21 02:09:57;;;;;;;10.38;5.15;;;;;;;3.40;60.84;98782.84;7348061;19;20022;-71
2023/03/21 02:12:23;;;;;;;13.70;5.85;;;;;;;3.33;61.60;98778.00;7346213;19;20360;-73
2023/03/21 02:14:50;;;;;;;14.95;6.05;;;;;;;3.31;61.32;98774.59;7345745;19;20014;-73
2023/03/21 02:17:48;;;;;;;9.85;5.38;;;;;;;3.35;61.89;98778.78;7342939;19;20082;-73
2023/03/21 02:20:44;;;;;;;9.93;5.65;;;;;;;3.34;61.82;98777.06;7345196;19;20003;-73
2023/03/21 02:23:25;;;;;;;8.95;5.43;;;;;;;3.37;62.03;98777.75;7343840;19;20405;-69
2023/03/21 02:26:11;;;;;;;7.80;4.55;;;;;;;3.44;60.97;98770.34;7344425;19;20011;-69
2023/03/21 02:28:54;;;;;;;10.70;5.88;;;;;;;3.34;61.62;98767.38;7343526;19;20345;-69
2023/03/21 02:31:47;;;;;;;11.40;5.55;;;;;;;3.37;61.93;98769.00;7343816;19;20099;-68
2023/03/21 02:34:30;;;;;;;10.43;5.10;;;;;;;3.32;61.96;98766.63;7346309;19;20030;-68
2023/03/21 02:37:10;;;;;;;10.70;5.32;;;;;;;3.28;62.09;98768.56;7345110;19;20025;-69
2023/03/21 02:39:56;;;;;;;10.98;5.60;;;;;;;3.25;62.62;98763.50;7348760;19;20002;-68
2023/03/21 02:42:47;;;;;;;11.95;5.85;;;;;;;3.26;62.40;98767.81;7345986;19;20010;-69
2023/03/21 02:45:24;;;;;;;10.48;6.05;;;;;;;3.20;62.41;98764.66;7341679;19;20002;-72
2023/03/21 02:48:03;;;;;;;11.75;4.88;;;;;;;3.19;62.11;98762.97;7341666;19;20022;-73
2023/03/21 02:50:37;;;;;;;9.82;5.05;;;;;;;3.22;62.07;98752.28;7340469;19;20022;-70
2023/03/21 02:53:05;;;;;;;10.10;5.22;;;;;;;3.23;62.33;98757.44;7344230;19;20427;-73
2023/03/21 02:55:33;;;;;;;12.07;5.93;;;;;;;3.24;62.13;98751.25;7341235;19;20022;-74
2023/03/21 02:58:06;;;;;;;8.50;5.10;;;;;;;3.24;62.41;98751.25;7341456;19;20018;-69
2023/03/21 03:00:32;;;;;;;15.40;6.47;;;;;;;3.26;62.65;98741.50;7342519;19;20015;-69
2023/03/21 03:02:59;;;;;;;11.95;4.93;;;;;;;3.29;62.34;98738.66;7341828;19;20011;-69
2023/03/21 03:05:28;;;;;;;9.75;4.60;;;;;;;3.26;62.16;98723.03;7342593;19;20017;-69
2023/03/21 03:08:11;;;;;;;10.35;5.47;;;;;;;3.44;61.95;98736.09;7339676;19;20393;-69
2023/03/21 03:11:01;;;;;;;10.20;5.68;;;;;;;3.45;61.60;98732.53;7342423;19;20052;-69
2023/03/21 03:13:56;;;;;;;12.60;5.60;;;;;;;3.52;61.38;98729.44;7338671;19;20355;-69
2023/03/21 03:16:30;;;;;;;14.18;6.22;;;;;;;3.49;60.96;98740.19;7337796;19;20014;-67
2023/03/21 03:18:59;;;;;;;8.55;5.28;;;;;;;3.52;60.70;98736.50;7340168;19;20017;-69
2023/03/21 03:21:29;;;;;;;10.38;6.57;;;;;;;3.48;60.79;98727.94;7339181;19;20493;-68
2023/03/21 03:24:00;;;;;;;10.85;6.18;;;;;;;3.44;60.97;98728.19;7340004;19;20338;-70
2023/03/21 03:26:30;;;;;;;10.32;5.45;;;;;;;3.46;60.94;98731.59;7344414;19;20126;-69
2023/03/21 03:29:01;;;;;;;9.90;5.47;;;;;;;3.49;60.92;98739.34;7347449;19;20006;-70
2023/03/21 03:31:38;;;;;;;12.85;5.18;;;;;;;3.58;60.85;98728.25;7343783;19;20014;-69
2023/03/21 03:34:11;;;;;;;13.52;5.95;;;;;;;3.62;60.75;98730.59;7342643;19;20025;-67
2023/03/21 03:36:43;;;;;;;9.95;5.45;;;;;;;3.59;61.09;98733.44;7343831;19;20029;-67
2023/03/21 03:39:13;;;;;;;9.73;5.55;;;;;;;3.58;60.90;98723.00;7346038;19;20026;-68
2023/03/21 03:42:02;;;;;;;9.60;5.65;;;;;;;3.63;61.00;98726.19;7349273;19;20626;-69
2023/03/21 03:44:32;;;;;;;10.77;5.60;;;;;;;3.61;60.99;98722.81;7349580;19;20017;-68
2023/03/21 03:47:11;;;;;;;10.60;5.82;;;;;;;3.69;60.75;98719.72;7349333;19;20022;-67
2023/03/21 03:49:46;;;;;;;13.77;6.53;;;;;;;3.68;60.62;98718.03;7349052;19;20011;-67
2023/03/21 03:52:15;;;;;;;11.07;6.03;;;;;;;3.63;60.79;98726.19;7347873;19;20014;-68
2023/03/21 03:54:47;;;;;;;12.05;5.43;;;;;;;3.62;60.84;98719.22;7344919;19;20345;-68
2023/03/21 03:57:13;;;;;;;15.48;5.40;;;;;;;3.62;60.94;98714.78;7344539;19;20081;-75
2023/03/21 03:59:42;;;;;;;13.23;6.55;;;;;;;3.62;60.67;98716.59;7343398;19;20014;-73
2023/03/21 04:02:29;;;;;;;9.50;5.22;;;;;;;3.59;60.95;98715.00;7343940;19;20007;-74
2023/03/21 04:04:56;;;;;;;11.00;5.80;;;;;;;3.59;60.88;98714.16;7340878;19;20014;-76
2023/03/21 04:07:21;;;;;;;8.88;5.70;;;;;;;3.58;60.93;98710.66;7346066;19;20115;-74
2023/03/21 04:09:47;;;;;;;14.98;6.50;;;;;;;3.58;60.77;98708.03;7340161;19;20018;-75
2023/03/21 04:12:15;;;;;;;11.65;5.72;;;;;;;3.54;61.11;98714.41;7340676;19;20346;-74
2023/03/21 04:14:51;;;;;;;9.50;5.15;;;;;;;3.56;61.11;98703.78;7340064;19;20497;-74
2023/03/21 04:17:18;;;;;;;11.15;6.07;;;;;;;3.55;61.25;98708.19;7338478;19;20505;-73
2023/03/21 04:19:44;;;;;;;15.25;7.15;;;;;;;3.53;61.33;98707.44;7341199;19;20506;-74
2023/03/21 04:22:08;;;;;;;13.50;6.63;;;;;;;3.49;61.38;98698.03;7340485;19;20015;-73
2023/03/21 04:24:38;;;;;;;12.55;6.07;;;;;;;3.56;61.20;98706.41;7342890;19;20045;-73
2023/03/21 04:27:04;;;;;;;15.63;6.25;;;;;;;3.60;61.20;98706.16;7339973;19;20040;-74
2023/03/21 04:30:04;;;;;;;12.23;5.97;;;;;;;3.60;60.94;98707.94;7338576;19;20019;-75
2023/03/21 04:32:53;;;;;;;11.48;5.85;;;;;;;3.61;61.45;98715.72;7337972;19;20457;-74
2023/03/21 04:35:19;;;;;;;10.73;6.47;;;;;;;3.60;61.71;98716.69;7337277;19;20022;-74
2023/03/21 04:37:45;;;;;;;15.85;7.40;;;;;;;3.63;61.43;98718.28;7337686;19;20018;-73
2023/03/21 04:40:16;;;;;;;13.43;6.22;;;;;;;3.71;61.45;98721.34;7337785;19;20094;-75
2023/03/21 04:42:41;;;;;;;19.48;6.10;;;;;;;3.80;61.22;98712.88;7338864;19;20014;-69
2023/03/21 04:45:06;;;;;;;16.63;7.03;;;;;;;3.87;60.84;98708.09;7337997;19;20018;-68
2023/03/21 04:47:31;;;;;;;16.88;7.93;;;;;;;3.92;60.61;98712.16;7341536;19;20018;-68
2023/03/21 04:49:58;;;;;;;12.50;6.53;;;;;;;3.97;60.25;98715.38;7337345;19;20078;-69
2023/03/21 04:52:23;;;;;;;17.25;7.22;;;;;;;4.06;60.28;98706.09;7337792;19;20423;-68
2023/03/21 04:54:49;;;;;;;11.48;7.18;;;;;;;4.11;60.03;98706.63;7337779;19;20015;-67
2023/03/21 04:57:14;;;;;;;17.38;7.75;;;;;;;4.13;59.57;98706.53;7336994;19;20015;-68
2023/03/21 04:59:40;;;;;;;13.68;7.25;;;;;;;4.13;59.50;98714.47;7342065;19;20019;-75
2023/03/21 05:02:04;;;;;;;13.05;7.88;;;;;;;4.13;59.12;98704.75;7343848;19;20026;-77
2023/03/21 05:04:29;;;;;;;18.88;7.63;;;;;;;4.04;59.53;98699.19;7353941;19;20014;-76
2023/03/21 05:06:55;;;;;;;12.98;6.88;;;;;;;4.04;59.52;98707.09;7354717;19;20027;-77
2023/03/21 05:09:21;;;;;;;15.52;7.15;;;;;;;4.07;59.42;98699.84;7351285;19;20014;-77
2023/03/21 05:11:46;;;;;;;13.32;7.53;;;;;;;4.06;59.29;98697.31;7350104;19;20014;-76
2023/03/21 05:14:20;;;;;;;12.38;7.20;;;;;;;4.13;59.20;98703.91;7348723;19;20017;-75
2023/03/21 05:16:53;;;;;;;20.50;7.53;;;;;;;4.05;59.04;98699.09;7349304;19;20042;-75
2023/03/21 05:19:24;;;;;;;21.35;8.63;;;;;;;4.10;59.27;98698.81;7349287;19;20014;-76
2023/03/21 05:21:49;;;;;;;11.05;6.50;;;;;;;4.15;59.13;98713.44;7347146;19;20037;-74
2023/03/21 05:24:20;;;;;;;14.52;7.72;;;;;;;4.13;59.03;98699.47;7348856;19;20014;-74
2023/03/21 05:26:49;;;;;;;15.13;7.00;;;;;;;4.21;59.12;98713.03;7346968;19;20128;-75
2023/03/21 05:29:17;;;;;;;16.98;8.20;;;;;;;4.32;59.07;98710.59;7346586;19;20092;-73
2023/03/21 05:31:48;;;;;;;15.02;6.88;;;;;;;4.40;58.67;98706.69;7346365;19;20018;-74
2023/03/21 05:34:13;;;;;;;16.20;6.88;;;;;;;4.46;58.53;98707.13;7347557;19;20026;-75
2023/03/21 05:36:38;;;;;;;13.85;7.53;;;;;;;4.46;58.35;98712.41;7344504;19;20018;-68
2023/03/21 05:39:06;;;;;;;11.25;6.72;;;;;;;4.45;58.30;98700.16;7345134;19;20019;-66
2023/03/21 05:41:34;;;;;;;17.30;8.25;;;;;;;4.46;58.04;98701.84;7347907;19;20089;-67
2023/03/21 05:44:01;;;;;;;16.45;7.03;;;;;;;4.35;58.72;98702.50;7345099;19;20026;-68
2023/03/21 05:46:26;;;;;;;15.55;6.68;;;;;;;4.46;58.86;98707.13;7344863;19;20019;-68
2023/03/21 05:48:51;;;;;;;13.48;6.97;;;;;;;4.61;58.57;98702.72;7344923;19;20010;-68
2023/03/21 05:51:17;;;;;;;14.18;7.32;;;;;;;4.76;58.19;98709.66;7344855;19;20074;-66
2023/03/21 05:53:41;;;;;;;17.10;8.15;;;;;;;4.87;57.82;98701.91;7344699;19;20030;-67
2023/03/21 05:56:07;;;;;;;12.52;6.75;;;;;;;5.00;57.56;98702.81;7344509;19;20077;-67
2023/03/21 05:58:57;;;;;;;16.77;8.05;;;;;;;5.11;56.98;98695.06;7345451;19;20025;-68
2023/03/21 06:01:23;;;;;;;16.33;7.82;;;;;;;5.20;56.84;98701.53;7344978;19;20022;-67
2023/03/21 06:04:05;;;;;;;23.67;8.18;;;;;;;5.22;56.56;98694.34;7345011;19;20093;-69
2023/03/21 06:06:31;;;;;;;10.95;6.93;;;;;;;5.34;56.68;98692.72;7348664;19;20081;-68
2023/03/21 06:09:00;;;;;;;12.07;7.30;;;;;;;5.41;56.27;98686.09;7344394;19;20014;-67
2023/03/21 06:11:29;;;;;;;12.45;7.05;;;;;;;5.48;55.81;98682.94;7344385;19;20010;-68
2023/03/21 06:14:11;;;;;;;15.07;6.85;;;;;;;5.55;55.69;98698.38;7344310;19;20094;-68
2023/03/21 06:16:37;;;;;;;14.27;6.47;;;;;;;5.58;55.95;98675.25;7340387;19;20063;-68
2023/03/21 06:19:01;;;;;;;11.15;6.68;;;;;;;5.59;55.95;98684.88;7344186;19;20014;-68
2023/03/21 06:21:44;;;;;;;14.65;8.23;;;;;;;5.73;55.77;98683.97;7347579;19;20476;-74
2023/03/21 06:24:09;;;;;;;12.90;6.68;;;;;;;5.74;55.68;98688.31;7344920;19;20451;-75
2023/03/21 06:26:34;;;;;;;12.73;6.50;;;;;;;5.74;55.92;98683.00;7345410;19;20453;-75
2023/03/21 06:28:59;;;;;;;21.27;8.65;;;;;;;5.80;55.92;98690.53;7344669;19;20444;-74
2023/03/21 06:31:25;;;;;;;15.38;6.90;;;;;;;5.71;56.18;98670.84;7344363;19;20022;-74
2023/03/21 06:33:53;;;;;;;10.82;6.72;;;;;;;5.79;56.27;98679.09;7345903;19;20014;-74
2023/03/21 06:36:18;;;;;;;14.95;8.23;;;;;;;5.80;56.27;98674.66;7350445;19;20054;-73
2023/03/21 06:38:43;;;;;;;14.38;7.93;;;;;;;5.87;56.33;98667.16;7362747;19;20019;-68
2023/03/21 06:41:08;;;;;;;15.55;7.50;;;;;;;6.07;56.14;98667.53;7353796;19;20019;-69
2023/03/21 06:43:39;;;;;;;10.50;7.13;;;;;;;6.23;55.69;98664.66;7357035;19;20006;-68
2023/03/21 06:46:04;;;;;;;16.50;6.82;;;;;;;6.41;55.49;98659.91;7357823;19;20013;-68
2023/03/21 06:48:30;;;;;;;14.13;7.03;;;;;;;6.61;55.19;98653.19;7355711;19;20066;-68
2023/03/21 06:50:55;;;;;;;17.88;7.85;;;;;;;6.96;54.80;98653.31;7348886;19;20051;-68
2023/03/21 06:53:26;;;;;;;11.18;6.63;;;;;;;7.84;53.64;98652.84;7346530;19;20501;-69
2023/03/21 06:56:10;;;;;;;17.02;7.30;;;;;;;9.06;50.13;98641.41;7341628;19;20465;-68
2023/03/21 06:58:37;;;;;;;11.52;7.25;;;;;;;9.56;48.27;98635.59;7342482;19;20358;-67
2023/03/21 07:01:03;;;;;;;14.93;7.15;;;;;;;9.72;47.85;98635.97;7342707;19;20010;-73
2023/03/21 07:03:32;;;;;;;11.20;7.05;;;;;;;9.79;47.92;98638.00;7342637;19;20006;-74
2023/03/21 07:06:07;;;;;;;16.35;8.00;;;;;;;9.38;48.28;98637.94;7342858;19;20396;-73
2023/03/21 07:08:32;;;;;;;15.98;7.38;;;;;;;8.92;49.19;98639.03;7342995;19;20011;-76
2023/03/21 07:10:56;;;;;;;15.50;7.13;;;;;;;8.60;50.35;98643.41;7342417;19;20029;-73
2023/03/21 07:13:21;;;;;;;13.73;7.93;;;;;;;8.25;51.20;98641.69;7342196;19;20469;-74
2023/03/21 07:15:53;;;;;;;17.85;7.53;;;;;;;8.05;52.21;98646.84;7342140;19;20098;-72
2023/03/21 07:18:17;;;;;;;14.38;7.65;;;;;;;7.87;52.58;98641.16;7344006;19;20122;-74
2023/03/21 07:20:47;;;;;;;14.40;8.20;;;;;;;7.79;53.07;98641.72;7344868;19;20019;-73
2023/03/21 07:23:11;;;;;;;13.23;8.15;;;;;;;7.70;53.66;98646.88;7343875;19;20326;-74
2023/03/21 07:25:36;;;;;;;15.13;8.40;;;;;;;7.76;54.55;98646.44;7345568;19;20337;-75
2023/03/21 07:28:01;;;;;;;14.05;7.38;;;;;;;7.88;54.91;98640.22;7341958;19;20010;-75
2023/03/21 07:30:26;;;;;;;12.25;6.93;;;;;;;7.89;55.01;98641.91;7341653;19;20437;-74
2023/03/21 07:32:52;;;;;;;12.98;7.97;;;;;;;7.91;55.14;98638.13;7341700;19;20032;-74
2023/03/21 07:35:17;;;;;;;14.50;6.70;;;;;;;7.95;54.94;98639.59;7341076;19;20036;-74
2023/03/21 07:37:42;;;;;;;13.10;8.32;;;;;;;8.07;55.59;98637.81;7342989;19;20019;-74
2023/03/21 07:40:11;;;;;;;12.57;7.53;;;;;;;8.10;55.60;98632.28;7347588;19;20024;-73
2023/03/21 07:42:39;;;;;;;16.27;8.88;;;;;;;8.10;55.66;98631.44;7353845;19;20006;-75
2023/03/21 07:45:07;;;;;;;16.17;9.60;;;;;;;8.07;56.37;98624.53;7356180;19;20017;-73
2023/03/21 07:47:31;;;;;;;13.45;7.45;;;;;;;8.34;56.36;98626.91;7354794;19;20006;-75
2023/03/21 07:49:57;;;;;;;14.02;7.97;;;;;;;8.79;56.16;98619.75;7353101;19;20338;-68
2023/03/21 07:52:22;;;;;;;13.00;6.85;;;;;;;9.08;54.67;98618.22;7351960;19;20010;-68
2023/03/21 07:54:47;;;;;;;10.80;7.07;;;;;;;9.20;54.07;98623.50;7351803;19;20011;-67
2023/03/21 07:57:11;;;;;;;10.88;6.90;;;;;;;9.03;54.55;98625.72;7346168;19;20022;-69
2023/03/21 07:59:36;;;;;;;16.58;7.97;;;;;;;8.93;54.57;98631.91;7347678;19;20014;-69
2023/03/21 08:02:00;;;;;;;10.57;6.93;;;;;;;8.78;55.29;98623.38;7344813;19;20327;-68
2023/03/21 08:04:26;;;;;;;13.50;8.02;;;;;;;8.61;55.74;98619.41;7344253;19;20007;-69
2023/03/21 08:06:51;;;;;;;13.85;7.80;;;;;;;8.51;56.50;98621.09;7343420;19;20011;-68
2023/03/21 08:09:17;;;;;;;12.45;7.93;;;;;;;8.48;56.70;98631.94;7342902;19;20007;-68
2023/03/21 08:11:43;;;;;;;12.02;7.15;;;;;;;8.38;56.55;98629.19;7341816;19;20035;-68
2023/03/21 08:14:07;;;;;;;10.02;6.63;;;;;;;8.43;56.86;98618.22;7343819;19;20019;-67
2023/03/21 08:16:32;;;;;;;12.88;8.60;;;;;;;8.44;56.31;98611.94;7341425;19;20025;-67
2023/03/21 08:18:57;;;;;;;13.77;8.07;;;;;;;8.54;56.65;98614.69;7343556;19;20438;-67
2023/03/21 08:21:21;;;;;;;11.50;7.05;;;;;;;8.57;56.41;98617.13;7341574;19;20010;-75
2023/03/21 08:23:46;;;;;;;12.43;8.00;;;;;;;8.58;56.47;98610.81;7343346;19;20007;-74
2023/03/21 08:26:17;;;;;;;12.93;8.18;;;;;;;8.52;56.49;98613.97;7341982;19;20412;-75
2023/03/21 08:28:41;;;;;;;17.13;8.50;;;;;;;8.21;57.25;98618.16;7341517;19;20010;-73
2023/03/21 08:31:08;;;;;;;12.98;7.70;;;;;;;8.24;57.45;98612.63;7340129;19;20011;-73
2023/03/21 08:33:32;;;;;;;11.70;7.75;;;;;;;8.17;57.71;98609.59;7347498;19;20026;-74
2023/03/21 08:35:59;;;;;;;14.23;7.88;;;;;;;8.13;58.24;98615.25;7348094;19;20022;-75
2023/03/21 08:38:24;;;;;;;10.10;6.50;;;;;;;8.08;58.18;98614.78;7354334;19;20014;-74
2023/03/21 08:40:49;;;;;;;9.95;6.38;;;;;;;7.97;58.66;98615.59;7345399;19;20357;-76
2023/03/21 08:43:14;;;;;;;13.93;6.10;;;;;;;7.91;58.89;98614.25;7341220;19;20435;-75
2023/03/21 08:45:40;;;;;;;11.90;6.90;;;;;;;7.60;59.64;98606.97;7340528;19;20026;-74
2023/03/21 08:48:05;;;;;;;11.80;6.82;;;;;;;7.41;60.58;98611.97;7341618;19;20495;-75
2023/03/21 08:50:30;;;;;;;13.18;6.72;;;;;;;7.14;61.72;98609.56;7339493;19;20026;-73
2023/03/21 08:52:55;;;;;;;12.30;6.80;;;;;;;6.93;63.49;98612.81;7341232;19;20019;-74
2023/03/21 08:55:20;;;;;;;11.02;6.18;;;;;;;7.01;63.24;98609.59;7340497;19;20025;-74
2023/03/21 08:57:45;;;;;;;13.52;7.53;;;;;;;6.95;64.44;98611.88;7338318;19;20413;-73
2023/03/21 09:00:13;;;;;;;8.68;5.75;;;;;;;7.06;63.50;98606.63;7341710;19;20018;-73
2023/03/21 09:02:38;;;;;;;11.27;6.53;;;;;;;6.97;64.45;98615.25;7340526;19;20007;-74
2023/03/21 09:05:04;;;;;;;9.32;6.15;;;;;;;7.11;64.83;98613.25;7341627;19;20025;-74
2023/03/21 09:07:32;;;;;;;8.98;5.53;;;;;;;7.32;64.97;98610.00;7339103;19;20007;-74
2023/03/21 09:09:57;;;;;;;10.82;6.07;;;;;;;7.78;64.34;98613.53;7340660;19;20042;-73
2023/03/21 09:12:21;;;;;;;13.00;6.20;;;;;;;8.24;62.62;98610.78;7340411;19;20111;-73
2023/03/21 09:14:46;;;;;;;10.02;5.97;;;;;;;8.53;61.50;98615.66;7341783;19;20472;-74
2023/03/21 09:17:11;;;;;;;10.43;5.55;;;;;;;8.54;60.84;98612.88;7354374;19;20022;-73
2023/03/21 09:19:37;;;;;;;9.52;4.70;;;;;;;8.29;61.19;98603.31;7346456;19;20043;-74
2023/03/21 09:22:03;;;;;;;10.23;5.88;;;;;;;8.19;62.93;98615.63;7339783;19;20230;-74
2023/03/21 09:24:28;;;;;;;10.15;5.72;;;;;;;8.36;62.87;98604.56;7340103;19;20015;-74
2023/03/21 09:26:53;;;;;;;12.45;5.60;;;;;;;8.97;61.85;98590.81;7340277;19;20027;-73
2023/03/21 09:29:20;;;;;;;10.18;5.30;;;;;;;9.90;60.28;98596.31;7340103;19;20018;-75
2023/03/21 09:31:46;;;;;;;8.50;5.13;;;;;;;11.00;56.49;98588.38;7341438;19;20331;-70
2023/03/21 09:34:11;;;;;;;8.32;5.35;;;;;;;11.97;53.48;98579.34;7339619;19;20124;-69
2023/03/21 09:36:36;;;;;;;9.95;5.05;;;;;;;12.79;51.44;98575.09;7336550;19;20019;-70
2023/03/21 09:39:03;;;;;;;7.10;4.63;;;;;;;13.59;49.01;98572.44;7341531;19;20006;-70
2023/03/21 09:41:42;;;;;;;18.48;5.35;;;;;;;14.28;48.03;98576.94;7339974;19;20339;-69
2023/03/21 09:44:36;;;;;;;8.05;4.65;;;;;;;14.96;45.49;98565.34;7339622;19;20015;-69
2023/03/21 09:47:20;;;;;;;8.02;4.22;;;;;;;15.66;43.35;98563.97;7338672;19;20025;-68
2023/03/21 09:49:52;;;;;;;8.70;4.83;;;;;;;16.12;42.60;98567.81;7341254;19;20031;-69
2023/03/21 09:52:22;;;;;;;7.82;4.72;;;;;;;16.50;42.08;98560.78;7345686;19;20774;-69
2023/03/21 09:54:47;;;;;;;8.50;4.85;;;;;;;16.14;41.80;98559.56;7347765;19;20468;-69
2023/03/21 09:57:33;;;;;;;5.53;4.45;;;;;;;15.76;42.82;98555.75;7344321;19;20580;-70
2023/03/21 10:00:15;;;;;;;8.50;4.72;;;;;;;15.09;42.96;98555.84;7346283;19;20009;-68
2023/03/21 10:02:46;;;;;;;7.32;5.28;;;;;;;14.87;43.35;98551.09;7346473;19;20014;-69
2023/03/21 10:05:17;;;;;;;8.23;4.82;;;;;;;14.91;43.53;98549.72;7346988;19;20018;-70
2023/03/21 10:07:47;;;;;;;7.05;5.03;;;;;;;15.34;42.87;98542.44;7350068;19;20342;-69
2023/03/21 10:10:18;;;;;;;7.20;4.03;;;;;;;15.41;42.38;98544.28;7347571;19;20014;-69
2023/03/21 10:12:44;;;;;;;9.70;4.95;;;;;;;14.68;42.86;98540.59;7347128;19;20022;-68
2023/03/21 10:15:14;;;;;;;7.35;4.75;;;;;;;13.96;44.17;98539.22;7345032;19;20033;-69
2023/03/21 10:17:43;;;;;;;8.60;5.28;;;;;;;13.40;45.30;98538.66;7344147;19;20018;-69
2023/03/21 10:20:28;;;;;;;6.72;4.35;;;;;;;13.00;46.73;98536.38;7344296;19;20018;-68
2023/03/21 10:22:55;;;;;;;6.95;4.75;;;;;;;12.64;47.13;98540.03;7346403;19;20027;-69
2023/03/21 10:25:36;;;;;;;7.60;5.43;;;;;;;12.82;47.22;98530.19;7344196;19;20465;-70
2023/03/21 10:28:02;;;;;;;7.88;5.20;;;;;;;12.61;47.23;98540.31;7345685;19;20028;-72
2023/03/21 10:30:36;;;;;;;7.15;4.90;;;;;;;12.77;46.99;98532.44;7344058;19;20824;-70
2023/03/21 10:33:04;;;;;;;5.68;4.47;;;;;;;12.63;46.71;98523.13;7343932;19;20122;-68
2023/03/21 10:35:35;;;;;;;10.57;4.38;;;;;;;12.50;47.10;98519.97;7342960;19;20747;-69
2023/03/21 10:38:00;;;;;;;7.80;5.15;;;;;;;12.34;47.32;98522.44;7343715;19;20021;-69
2023/03/21 10:40:25;;;;;;;8.57;4.70;;;;;;;12.39;47.05;98513.97;7344221;19;20014;-68
2023/03/21 10:42:49;;;;;;;7.68;4.95;;;;;;;12.32;47.36;98521.72;7344062;19;20006;-70
2023/03/21 10:45:18;;;;;;;6.85;5.00;;;;;;;12.29;47.08;98516.69;7343504;19;20015;-68
2023/03/21 10:47:47;;;;;;;7.65;4.57;;;;;;;12.21;47.22;98519.25;7345508;19;20010;-69
2023/03/21 10:50:23;;;;;;;6.00;4.72;;;;;;;12.07;47.38;98520.59;7344632;19;20015;-67
2023/03/21 10:52:59;;;;;;;7.85;4.88;;;;;;;12.29;47.09;98516.69;7343374;19;20007;-68
2023/03/21 10:55:28;;;;;;;8.90;5.47;;;;;;;11.85;47.67;98523.63;7344815;19;20023;-68
2023/03/21 10:57:58;;;;;;;6.40;4.38;;;;;;;11.63;47.83;98520.22;7341314;19;20014;-68
2023/03/21 11:00:27;;;;;;;8.90;5.00;;;;;;;11.23;48.89;98517.78;7344598;19;20039;-67
2023/03/21 11:02:53;;;;;;;9.48;5.97;;;;;;;10.87;49.26;98515.78;7341478;19;20010;-68
2023/03/21 11:05:21;;;;;;;6.72;4.55;;;;;;;10.45;49.95;98526.66;7346736;19;20017;-69
2023/03/21 11:07:46;;;;;;;11.05;4.70;;;;;;;9.81;51.08;98518.94;7343879;19;20022;-72
2023/03/21 11:10:15;;;;;;;6.90;5.32;;;;;;;9.74;50.79;98514.25;7341504;19;20015;-72
2023/03/21 11:12:46;;;;;;;6.68;4.22;;;;;;;9.63;50.87;98525.84;7347182;19;20010;-72
2023/03/21 11:15:26;;;;;;;9.35;4.55;;;;;;;9.43;51.26;98508.06;7347752;19;20101;-72
2023/03/21 11:17:50;;;;;;;6.28;4.05;;;;;;;9.45;50.38;98509.63;7344156;19;20026;-72
2023/03/21 11:20:20;;;;;;;7.60;4.70;;;;;;;9.48;50.64;98495.19;7346858;19;20022;-71
2023/03/21 11:22:46;;;;;;;6.35;4.28;;;;;;;9.53;50.29;98513.44;7349046;19;20102;-73
2023/03/21 11:25:36;;;;;;;6.72;3.97;;;;;;;9.63;50.33;98507.22;7355525;19;20026;-71
2023/03/21 11:28:08;;;;;;;7.50;4.40;;;;;;;9.40;49.94;98511.81;7352333;19;20471;-72
2023/03/21 11:30:33;;;;;;;6.57;4.18;;;;;;;9.29;49.64;98497.75;7343992;19;20342;-71
2023/03/21 11:33:05;;;;;;;6.18;4.55;;;;;;;9.23;49.61;98501.78;7345078;19;20449;-71
2023/03/21 11:35:35;;;;;;;6.45;4.35;;;;;;;9.05;50.14;98497.97;7341131;19;20116;-70
2023/03/21 11:38:00;;;;;;;6.28;4.00;;;;;;;9.05;49.66;98503.31;7341855;19;20018;-70
2023/03/21 11:40:26;;;;;;;6.88;4.05;;;;;;;9.18;49.17;98496.00;7340631;19;20019;-73
2023/03/21 11:42:53;;;;;;;6.18;3.80;;;;;;;9.22;48.87;98485.94;7343526;19;20006;-73
2023/03/21 11:45:24;;;;;;;6.53;4.22;;;;;;;9.23;48.44;98479.66;7345273;19;20015;-72
2023/03/21 11:47:52;;;;;;;8.07;3.95;;;;;;;9.23;47.42;98491.16;7344668;19;20006;-71